Main page
METAR-TAF:

METAR-TAF

Airports :

Tirupati Airport

Tirupati, India

latitude: 13-38-16N, longitude: 79-32-50E, elevation: 107 m

Current weather observation

The report was made 28 minutes ago, at 07:30 UTC
Wind 10 kt from the North/Northwest with gusts up to 20 kt
Temperature 34°C
Humidity 44%
Pressure 1006 hPa
Visibility: 7000 m
Scattered clouds at a height of 2000 ft

METAR: VOTP 300730Z 33010G20KT 7000 SCT020 34/20 Q1006 NOSIG

Time: 13:28 (07:58 UTC)

Forecast

The report was made 2 hours and 58 minutes ago, at 05:00 UTC
Forecast valid from 30 at 06 UTC to 30 at 15 UTC
Wind 15 kt from the West/Northwest
Visibility: 6000 m
Few clouds at a height of 2000 ft
Scattered clouds at a height of 2500 ft
Broken clouds at a height of 8000 ft
Temporary
from 30 at 09 UTC to 30 at 15 UTC
Few clouds at a height of 3000 ft, Cumulonimbus.
Broken clouds at a height of 8000 ft

TAF: VOTP 300500Z 3006/3015 29015KT 6000 FEW020 SCT025 BKN080 TEMPO 3009/3015 FEW030CB BKN080

Weather observations and forecasts of more than 4000 airports (METAR and TAF reports).

The available stations are represented by yellow and red dots on the map.

Hover mouse over dot to see the name of the station.

Then click to see weather observations and forecasts.

To change the map : click on the green buttons with a black cross to zoom in, on the green button with a dash to zoom out, or on the green arrows for adjacent maps.


METAR-TAF: